sensor_id;sensor_type;location;lat;lon;timestamp;P1;durP1;ratioP1;P2;durP2;ratioP2
10260;SDS011;5175;42.606;23.388;2023-02-19T00:01:50;11.37;;;7.63;;
10260;SDS011;5175;42.606;23.388;2023-02-19T00:04:18;9.77;;;7.33;;
10260;SDS011;5175;42.606;23.388;2023-02-19T00:06:46;9.30;;;6.87;;
10260;SDS011;5175;42.606;23.388;2023-02-19T00:09:15;8.30;;;6.23;;
10260;SDS011;5175;42.606;23.388;2023-02-19T00:11:43;11.20;;;6.40;;
10260;SDS011;5175;42.606;23.388;2023-02-19T00:14:10;10.83;;;6.03;;
10260;SDS011;5175;42.606;23.388;2023-02-19T00:16:40;7.83;;;6.00;;
10260;SDS011;5175;42.606;23.388;2023-02-19T00:19:11;7.87;;;6.00;;
10260;SDS011;5175;42.606;23.388;2023-02-19T00:21:39;9.63;;;6.33;;
10260;SDS011;5175;42.606;23.388;2023-02-19T00:24:06;9.97;;;6.50;;
10260;SDS011;5175;42.606;23.388;2023-02-19T00:26:37;7.63;;;6.07;;
10260;SDS011;5175;42.606;23.388;2023-02-19T00:29:04;9.10;;;6.07;;
10260;SDS011;5175;42.606;23.388;2023-02-19T00:31:32;8.60;;;6.00;;
10260;SDS011;5175;42.606;23.388;2023-02-19T00:34:01;11.60;;;6.70;;
10260;SDS011;5175;42.606;23.388;2023-02-19T00:36:31;10.07;;;6.73;;
10260;SDS011;5175;42.606;23.388;2023-02-19T00:39:00;12.10;;;6.97;;
10260;SDS011;5175;42.606;23.388;2023-02-19T00:41:26;11.73;;;7.03;;
10260;SDS011;5175;42.606;23.388;2023-02-19T00:43:55;10.70;;;7.47;;
10260;SDS011;5175;42.606;23.388;2023-02-19T00:46:23;12.20;;;7.33;;
10260;SDS011;5175;42.606;23.388;2023-02-19T00:48:51;10.77;;;6.60;;
10260;SDS011;5175;42.606;23.388;2023-02-19T00:51:18;9.80;;;6.07;;
10260;SDS011;5175;42.606;23.388;2023-02-19T00:53:47;11.80;;;6.77;;
10260;SDS011;5175;42.606;23.388;2023-02-19T00:56:14;9.40;;;6.53;;
10260;SDS011;5175;42.606;23.388;2023-02-19T00:58:41;8.60;;;6.33;;
10260;SDS011;5175;42.606;23.388;2023-02-19T01:01:08;8.97;;;6.93;;
10260;SDS011;5175;42.606;23.388;2023-02-19T01:03:35;11.57;;;7.40;;
10260;SDS011;5175;42.606;23.388;2023-02-19T01:06:03;10.23;;;6.60;;
10260;SDS011;5175;42.606;23.388;2023-02-19T01:08:32;10.20;;;6.87;;
10260;SDS011;5175;42.606;23.388;2023-02-19T01:11:01;12.70;;;6.87;;
10260;SDS011;5175;42.606;23.388;2023-02-19T01:13:29;11.93;;;6.80;;
10260;SDS011;5175;42.606;23.388;2023-02-19T01:16:01;9.70;;;7.27;;
10260;SDS011;5175;42.606;23.388;2023-02-19T01:18:29;12.47;;;7.27;;
10260;SDS011;5175;42.606;23.388;2023-02-19T01:20:56;11.27;;;7.17;;
10260;SDS011;5175;42.606;23.388;2023-02-19T01:23:23;10.60;;;7.33;;
10260;SDS011;5175;42.606;23.388;2023-02-19T01:25:49;10.47;;;7.60;;
10260;SDS011;5175;42.606;23.388;2023-02-19T01:28:17;12.97;;;8.97;;
10260;SDS011;5175;42.606;23.388;2023-02-19T01:30:44;12.53;;;8.10;;
10260;SDS011;5175;42.606;23.388;2023-02-19T01:33:11;13.83;;;8.70;;
10260;SDS011;5175;42.606;23.388;2023-02-19T01:35:38;11.20;;;7.70;;
10260;SDS011;5175;42.606;23.388;2023-02-19T01:38:05;11.37;;;7.53;;
10260;SDS011;5175;42.606;23.388;2023-02-19T01:40:32;12.50;;;8.10;;
10260;SDS011;5175;42.606;23.388;2023-02-19T01:42:59;11.30;;;8.00;;
10260;SDS011;5175;42.606;23.388;2023-02-19T01:45:29;16.03;;;9.60;;
10260;SDS011;5175;42.606;23.388;2023-02-19T01:47:58;12.87;;;7.80;;
10260;SDS011;5175;42.606;23.388;2023-02-19T01:50:31;13.30;;;8.37;;
10260;SDS011;5175;42.606;23.388;2023-02-19T01:53:01;16.43;;;10.03;;
10260;SDS011;5175;42.606;23.388;2023-02-19T01:55:31;16.43;;;11.63;;
10260;SDS011;5175;42.606;23.388;2023-02-19T01:57:59;13.37;;;9.80;;
10260;SDS011;5175;42.606;23.388;2023-02-19T02:00:29;14.73;;;10.87;;
10260;SDS011;5175;42.606;23.388;2023-02-19T02:02:57;16.77;;;9.43;;
10260;SDS011;5175;42.606;23.388;2023-02-19T02:05:32;13.63;;;9.33;;
10260;SDS011;5175;42.606;23.388;2023-02-19T02:08:05;12.60;;;8.67;;
10260;SDS011;5175;42.606;23.388;2023-02-19T02:10:49;11.57;;;7.90;;
10260;SDS011;5175;42.606;23.388;2023-02-19T02:13:17;14.50;;;8.40;;
10260;SDS011;5175;42.606;23.388;2023-02-19T02:15:47;12.43;;;8.23;;
10260;SDS011;5175;42.606;23.388;2023-02-19T02:18:22;10.47;;;7.73;;
10260;SDS011;5175;42.606;23.388;2023-02-19T02:21:05;11.23;;;7.67;;
10260;SDS011;5175;42.606;23.388;2023-02-19T02:23:58;11.30;;;7.17;;
10260;SDS011;5175;42.606;23.388;2023-02-19T02:26:44;10.87;;;7.70;;
10260;SDS011;5175;42.606;23.388;2023-02-19T02:32:31;10.20;;;6.83;;
10260;SDS011;5175;42.606;23.388;2023-02-19T02:35:02;14.17;;;6.97;;
10260;SDS011;5175;42.606;23.388;2023-02-19T02:37:34;8.97;;;6.20;;
10260;SDS011;5175;42.606;23.388;2023-02-19T02:40:04;9.20;;;6.00;;
10260;SDS011;5175;42.606;23.388;2023-02-19T02:42:32;10.63;;;6.63;;
10260;SDS011;5175;42.606;23.388;2023-02-19T02:45:14;11.90;;;7.23;;
10260;SDS011;5175;42.606;23.388;2023-02-19T02:48:00;9.53;;;6.47;;
10260;SDS011;5175;42.606;23.388;2023-02-19T02:50:35;11.80;;;6.93;;
10260;SDS011;5175;42.606;23.388;2023-02-19T02:53:07;8.50;;;6.43;;
10260;SDS011;5175;42.606;23.388;2023-02-19T02:55:56;8.73;;;6.13;;
10260;SDS011;5175;42.606;23.388;2023-02-19T02:58:24;9.97;;;6.27;;
10260;SDS011;5175;42.606;23.388;2023-02-19T03:00:55;10.97;;;6.00;;
10260;SDS011;5175;42.606;23.388;2023-02-19T03:03:43;10.23;;;7.03;;
10260;SDS011;5175;42.606;23.388;2023-02-19T03:06:14;10.07;;;6.60;;
10260;SDS011;5175;42.606;23.388;2023-02-19T03:08:46;9.17;;;6.10;;
10260;SDS011;5175;42.606;23.388;2023-02-19T03:11:17;8.03;;;5.80;;
10260;SDS011;5175;42.606;23.388;2023-02-19T03:14:03;8.50;;;5.77;;
10260;SDS011;5175;42.606;23.388;2023-02-19T03:16:53;9.00;;;6.90;;
10260;SDS011;5175;42.606;23.388;2023-02-19T03:19:49;10.20;;;6.33;;
10260;SDS011;5175;42.606;23.388;2023-02-19T03:22:20;8.10;;;5.83;;
10260;SDS011;5175;42.606;23.388;2023-02-19T03:24:49;10.20;;;6.57;;
10260;SDS011;5175;42.606;23.388;2023-02-19T03:27:38;8.97;;;6.50;;
10260;SDS011;5175;42.606;23.388;2023-02-19T03:30:09;9.87;;;6.70;;
10260;SDS011;5175;42.606;23.388;2023-02-19T03:32:43;10.07;;;6.53;;
10260;SDS011;5175;42.606;23.388;2023-02-19T03:35:15;11.47;;;6.80;;
10260;SDS011;5175;42.606;23.388;2023-02-19T03:37:46;11.77;;;8.10;;
10260;SDS011;5175;42.606;23.388;2023-02-19T03:40:19;11.00;;;6.83;;
10260;SDS011;5175;42.606;23.388;2023-02-19T03:42:52;10.50;;;6.93;;
10260;SDS011;5175;42.606;23.388;2023-02-19T03:45:30;11.37;;;7.57;;
10260;SDS011;5175;42.606;23.388;2023-02-19T03:48:11;11.37;;;6.90;;
10260;SDS011;5175;42.606;23.388;2023-02-19T03:50:50;10.33;;;7.53;;
10260;SDS011;5175;42.606;23.388;2023-02-19T03:53:26;11.07;;;7.10;;
10260;SDS011;5175;42.606;23.388;2023-02-19T03:56:01;10.90;;;6.90;;
10260;SDS011;5175;42.606;23.388;2023-02-19T03:58:36;11.03;;;7.50;;
10260;SDS011;5175;42.606;23.388;2023-02-19T04:01:07;8.70;;;6.60;;
10260;SDS011;5175;42.606;23.388;2023-02-19T04:03:42;11.90;;;7.20;;
10260;SDS011;5175;42.606;23.388;2023-02-19T04:06:15;8.27;;;6.53;;
10260;SDS011;5175;42.606;23.388;2023-02-19T04:08:46;10.27;;;6.50;;
10260;SDS011;5175;42.606;23.388;2023-02-19T04:11:17;11.17;;;6.17;;
10260;SDS011;5175;42.606;23.388;2023-02-19T04:13:47;9.63;;;5.80;;
10260;SDS011;5175;42.606;23.388;2023-02-19T04:16:21;11.57;;;6.30;;
10260;SDS011;5175;42.606;23.388;2023-02-19T04:18:53;9.67;;;6.00;;
10260;SDS011;5175;42.606;23.388;2023-02-19T04:21:24;10.60;;;6.63;;
10260;SDS011;5175;42.606;23.388;2023-02-19T04:23:54;10.13;;;7.60;;
10260;SDS011;5175;42.606;23.388;2023-02-19T04:26:24;9.97;;;7.33;;
10260;SDS011;5175;42.606;23.388;2023-02-19T04:28:51;11.90;;;7.70;;
10260;SDS011;5175;42.606;23.388;2023-02-19T04:31:19;12.10;;;8.43;;
10260;SDS011;5175;42.606;23.388;2023-02-19T04:33:46;12.97;;;10.17;;
10260;SDS011;5175;42.606;23.388;2023-02-19T04:36:14;14.63;;;10.37;;
10260;SDS011;5175;42.606;23.388;2023-02-19T04:38:42;13.30;;;10.00;;
10260;SDS011;5175;42.606;23.388;2023-02-19T04:41:08;17.30;;;12.00;;
10260;SDS011;5175;42.606;23.388;2023-02-19T04:43:35;15.50;;;10.73;;
10260;SDS011;5175;42.606;23.388;2023-02-19T04:46:02;14.27;;;10.30;;
10260;SDS011;5175;42.606;23.388;2023-02-19T04:48:29;13.87;;;9.93;;
10260;SDS011;5175;42.606;23.388;2023-02-19T04:50:55;18.20;;;10.00;;
10260;SDS011;5175;42.606;23.388;2023-02-19T04:53:23;14.13;;;10.47;;
10260;SDS011;5175;42.606;23.388;2023-02-19T04:55:50;13.67;;;10.30;;
10260;SDS011;5175;42.606;23.388;2023-02-19T04:58:18;17.93;;;10.43;;
10260;SDS011;5175;42.606;23.388;2023-02-19T05:00:49;14.67;;;10.87;;
10260;SDS011;5175;42.606;23.388;2023-02-19T05:03:17;16.23;;;10.77;;
10260;SDS011;5175;42.606;23.388;2023-02-19T05:05:44;14.77;;;9.23;;
10260;SDS011;5175;42.606;23.388;2023-02-19T05:08:10;12.07;;;7.93;;
10260;SDS011;5175;42.606;23.388;2023-02-19T05:10:38;12.57;;;8.57;;
10260;SDS011;5175;42.606;23.388;2023-02-19T05:13:05;13.77;;;9.30;;
10260;SDS011;5175;42.606;23.388;2023-02-19T05:15:32;15.27;;;8.90;;
10260;SDS011;5175;42.606;23.388;2023-02-19T05:17:58;11.20;;;8.80;;
10260;SDS011;5175;42.606;23.388;2023-02-19T05:20:25;10.37;;;7.57;;
10260;SDS011;5175;42.606;23.388;2023-02-19T05:22:52;11.13;;;7.80;;
10260;SDS011;5175;42.606;23.388;2023-02-19T05:25:18;10.27;;;8.07;;
10260;SDS011;5175;42.606;23.388;2023-02-19T05:27:47;12.00;;;8.10;;
10260;SDS011;5175;42.606;23.388;2023-02-19T05:30:13;11.43;;;8.23;;
10260;SDS011;5175;42.606;23.388;2023-02-19T05:32:40;14.43;;;9.97;;
10260;SDS011;5175;42.606;23.388;2023-02-19T05:35:07;10.90;;;7.30;;
10260;SDS011;5175;42.606;23.388;2023-02-19T05:37:33;10.53;;;7.70;;
10260;SDS011;5175;42.606;23.388;2023-02-19T05:40:00;9.07;;;7.37;;
10260;SDS011;5175;42.606;23.388;2023-02-19T05:42:27;10.67;;;7.70;;
10260;SDS011;5175;42.606;23.388;2023-02-19T05:44:55;10.67;;;8.23;;
10260;SDS011;5175;42.606;23.388;2023-02-19T05:47:22;12.70;;;7.47;;
10260;SDS011;5175;42.606;23.388;2023-02-19T05:49:48;8.43;;;6.20;;
10260;SDS011;5175;42.606;23.388;2023-02-19T05:52:15;8.73;;;6.97;;
10260;SDS011;5175;42.606;23.388;2023-02-19T05:54:42;8.20;;;7.23;;
10260;SDS011;5175;42.606;23.388;2023-02-19T05:57:09;8.53;;;7.17;;
10260;SDS011;5175;42.606;23.388;2023-02-19T05:59:35;10.07;;;7.30;;
10260;SDS011;5175;42.606;23.388;2023-02-19T06:02:03;10.30;;;7.40;;
10260;SDS011;5175;42.606;23.388;2023-02-19T06:04:30;11.13;;;8.10;;
10260;SDS011;5175;42.606;23.388;2023-02-19T06:06:57;10.20;;;7.63;;
10260;SDS011;5175;42.606;23.388;2023-02-19T06:09:23;9.77;;;6.97;;
10260;SDS011;5175;42.606;23.388;2023-02-19T06:11:50;7.87;;;6.77;;
10260;SDS011;5175;42.606;23.388;2023-02-19T06:14:16;9.27;;;6.73;;
10260;SDS011;5175;42.606;23.388;2023-02-19T06:16:43;10.80;;;7.47;;
10260;SDS011;5175;42.606;23.388;2023-02-19T06:19:11;9.93;;;7.50;;
10260;SDS011;5175;42.606;23.388;2023-02-19T06:21:38;10.23;;;6.60;;
10260;SDS011;5175;42.606;23.388;2023-02-19T06:24:06;7.30;;;5.90;;
10260;SDS011;5175;42.606;23.388;2023-02-19T06:26:33;9.00;;;6.50;;
10260;SDS011;5175;42.606;23.388;2023-02-19T06:29:00;8.43;;;6.70;;
10260;SDS011;5175;42.606;23.388;2023-02-19T06:31:27;8.03;;;6.80;;
10260;SDS011;5175;42.606;23.388;2023-02-19T06:33:53;8.80;;;6.47;;
10260;SDS011;5175;42.606;23.388;2023-02-19T06:36:22;7.33;;;6.47;;
10260;SDS011;5175;42.606;23.388;2023-02-19T06:38:49;10.00;;;6.97;;
10260;SDS011;5175;42.606;23.388;2023-02-19T06:41:16;8.50;;;7.03;;
10260;SDS011;5175;42.606;23.388;2023-02-19T06:43:42;9.07;;;7.33;;
10260;SDS011;5175;42.606;23.388;2023-02-19T06:46:11;10.50;;;7.27;;
10260;SDS011;5175;42.606;23.388;2023-02-19T06:48:38;8.40;;;7.57;;
10260;SDS011;5175;42.606;23.388;2023-02-19T06:51:06;9.60;;;6.73;;
10260;SDS011;5175;42.606;23.388;2023-02-19T06:53:34;9.47;;;7.03;;
10260;SDS011;5175;42.606;23.388;2023-02-19T06:56:01;10.43;;;7.70;;
10260;SDS011;5175;42.606;23.388;2023-02-19T06:58:30;9.83;;;7.40;;
10260;SDS011;5175;42.606;23.388;2023-02-19T07:00:57;9.90;;;7.20;;
10260;SDS011;5175;42.606;23.388;2023-02-19T07:03:24;8.77;;;7.37;;
10260;SDS011;5175;42.606;23.388;2023-02-19T07:05:51;9.67;;;7.30;;
10260;SDS011;5175;42.606;23.388;2023-02-19T07:08:18;10.33;;;7.70;;
10260;SDS011;5175;42.606;23.388;2023-02-19T07:10:52;8.50;;;6.87;;
10260;SDS011;5175;42.606;23.388;2023-02-19T07:13:20;12.43;;;7.63;;
10260;SDS011;5175;42.606;23.388;2023-02-19T07:15:47;13.43;;;7.90;;
10260;SDS011;5175;42.606;23.388;2023-02-19T07:18:14;10.10;;;7.73;;
10260;SDS011;5175;42.606;23.388;2023-02-19T07:20:40;9.50;;;7.50;;
10260;SDS011;5175;42.606;23.388;2023-02-19T07:23:07;9.40;;;7.67;;
10260;SDS011;5175;42.606;23.388;2023-02-19T07:25:36;9.77;;;7.73;;
10260;SDS011;5175;42.606;23.388;2023-02-19T07:28:04;11.03;;;8.70;;
10260;SDS011;5175;42.606;23.388;2023-02-19T07:30:31;19.37;;;11.73;;
10260;SDS011;5175;42.606;23.388;2023-02-19T07:32:58;17.80;;;12.80;;
10260;SDS011;5175;42.606;23.388;2023-02-19T07:35:24;16.03;;;9.67;;
10260;SDS011;5175;42.606;23.388;2023-02-19T07:37:52;9.10;;;6.40;;
10260;SDS011;5175;42.606;23.388;2023-02-19T07:40:19;7.80;;;5.83;;
10260;SDS011;5175;42.606;23.388;2023-02-19T07:42:45;10.57;;;6.60;;
10260;SDS011;5175;42.606;23.388;2023-02-19T07:45:13;9.70;;;5.90;;
10260;SDS011;5175;42.606;23.388;2023-02-19T07:47:40;12.83;;;8.67;;
10260;SDS011;5175;42.606;23.388;2023-02-19T07:50:07;8.63;;;5.77;;
10260;SDS011;5175;42.606;23.388;2023-02-19T07:52:34;6.70;;;5.63;;
10260;SDS011;5175;42.606;23.388;2023-02-19T07:55:00;6.93;;;5.60;;
10260;SDS011;5175;42.606;23.388;2023-02-19T07:57:27;8.07;;;5.87;;
10260;SDS011;5175;42.606;23.388;2023-02-19T07:59:55;6.87;;;5.33;;
10260;SDS011;5175;42.606;23.388;2023-02-19T08:02:24;6.73;;;5.67;;
10260;SDS011;5175;42.606;23.388;2023-02-19T08:05:08;7.93;;;5.40;;
10260;SDS011;5175;42.606;23.388;2023-02-19T08:07:35;7.53;;;5.47;;
10260;SDS011;5175;42.606;23.388;2023-02-19T08:10:02;8.03;;;5.87;;
10260;SDS011;5175;42.606;23.388;2023-02-19T08:12:53;8.53;;;6.00;;
10260;SDS011;5175;42.606;23.388;2023-02-19T08:15:38;8.67;;;6.20;;
10260;SDS011;5175;42.606;23.388;2023-02-19T08:18:07;7.53;;;5.53;;
10260;SDS011;5175;42.606;23.388;2023-02-19T08:20:35;6.00;;;5.40;;
10260;SDS011;5175;42.606;23.388;2023-02-19T08:23:02;7.03;;;5.60;;
10260;SDS011;5175;42.606;23.388;2023-02-19T08:25:29;8.53;;;5.70;;
10260;SDS011;5175;42.606;23.388;2023-02-19T08:27:56;8.33;;;5.70;;
10260;SDS011;5175;42.606;23.388;2023-02-19T08:30:24;10.20;;;6.20;;
10260;SDS011;5175;42.606;23.388;2023-02-19T08:32:51;9.73;;;6.43;;
10260;SDS011;5175;42.606;23.388;2023-02-19T08:35:19;11.00;;;7.33;;
10260;SDS011;5175;42.606;23.388;2023-02-19T08:37:46;8.53;;;7.63;;
10260;SDS011;5175;42.606;23.388;2023-02-19T08:40:13;10.70;;;7.67;;
10260;SDS011;5175;42.606;23.388;2023-02-19T08:42:40;11.83;;;7.57;;
10260;SDS011;5175;42.606;23.388;2023-02-19T08:45:07;11.43;;;8.10;;
10260;SDS011;5175;42.606;23.388;2023-02-19T08:47:34;10.53;;;7.97;;
10260;SDS011;5175;42.606;23.388;2023-02-19T08:50:02;12.20;;;8.23;;
10260;SDS011;5175;42.606;23.388;2023-02-19T08:52:31;10.57;;;8.90;;
10260;SDS011;5175;42.606;23.388;2023-02-19T08:54:59;15.67;;;7.97;;
10260;SDS011;5175;42.606;23.388;2023-02-19T08:57:26;10.23;;;7.83;;
10260;SDS011;5175;42.606;23.388;2023-02-19T08:59:53;10.93;;;8.33;;
10260;SDS011;5175;42.606;23.388;2023-02-19T09:02:21;9.43;;;7.93;;
10260;SDS011;5175;42.606;23.388;2023-02-19T09:04:47;9.33;;;7.57;;
10260;SDS011;5175;42.606;23.388;2023-02-19T09:07:14;9.83;;;7.77;;
10260;SDS011;5175;42.606;23.388;2023-02-19T09:09:43;9.50;;;6.07;;
10260;SDS011;5175;42.606;23.388;2023-02-19T09:12:10;10.90;;;5.97;;
10260;SDS011;5175;42.606;23.388;2023-02-19T09:14:38;7.60;;;5.47;;
10260;SDS011;5175;42.606;23.388;2023-02-19T09:17:05;6.20;;;5.20;;
10260;SDS011;5175;42.606;23.388;2023-02-19T09:19:34;8.33;;;5.43;;
10260;SDS011;5175;42.606;23.388;2023-02-19T09:22:01;6.57;;;5.20;;
10260;SDS011;5175;42.606;23.388;2023-02-19T09:24:28;5.90;;;5.03;;
10260;SDS011;5175;42.606;23.388;2023-02-19T09:26:57;7.70;;;5.20;;
10260;SDS011;5175;42.606;23.388;2023-02-19T09:29:24;5.80;;;4.93;;
10260;SDS011;5175;42.606;23.388;2023-02-19T09:31:54;7.23;;;5.37;;
10260;SDS011;5175;42.606;23.388;2023-02-19T09:34:22;6.83;;;5.70;;
10260;SDS011;5175;42.606;23.388;2023-02-19T09:36:49;6.97;;;5.97;;
10260;SDS011;5175;42.606;23.388;2023-02-19T09:39:16;7.20;;;5.45;;
10260;SDS011;5175;42.606;23.388;2023-02-19T09:41:43;7.13;;;5.47;;
10260;SDS011;5175;42.606;23.388;2023-02-19T09:44:13;7.65;;;6.10;;
10260;SDS011;5175;42.606;23.388;2023-02-19T09:46:46;7.97;;;5.60;;
10260;SDS011;5175;42.606;23.388;2023-02-19T09:49:16;8.50;;;5.47;;
10260;SDS011;5175;42.606;23.388;2023-02-19T09:51:46;7.40;;;5.43;;
10260;SDS011;5175;42.606;23.388;2023-02-19T09:54:17;6.30;;;4.60;;
10260;SDS011;5175;42.606;23.388;2023-02-19T09:56:47;5.67;;;4.30;;
10260;SDS011;5175;42.606;23.388;2023-02-19T09:59:17;5.47;;;4.37;;
10260;SDS011;5175;42.606;23.388;2023-02-19T10:01:47;4.70;;;4.30;;
10260;SDS011;5175;42.606;23.388;2023-02-19T10:04:19;5.00;;;4.10;;
10260;SDS011;5175;42.606;23.388;2023-02-19T10:06:45;5.20;;;4.70;;
10260;SDS011;5175;42.606;23.388;2023-02-19T10:09:17;6.13;;;4.17;;
10260;SDS011;5175;42.606;23.388;2023-02-19T10:11:47;8.43;;;4.70;;
10260;SDS011;5175;42.606;23.388;2023-02-19T10:14:18;5.28;;;3.97;;
10260;SDS011;5175;42.606;23.388;2023-02-19T10:16:49;5.15;;;3.97;;
10260;SDS011;5175;42.606;23.388;2023-02-19T10:19:18;4.72;;;4.32;;
10260;SDS011;5175;42.606;23.388;2023-02-19T10:21:45;6.30;;;4.10;;
10260;SDS011;5175;42.606;23.388;2023-02-19T10:24:13;4.43;;;4.03;;
10260;SDS011;5175;42.606;23.388;2023-02-19T10:26:45;5.47;;;4.30;;
10260;SDS011;5175;42.606;23.388;2023-02-19T10:29:12;6.53;;;4.63;;
10260;SDS011;5175;42.606;23.388;2023-02-19T10:31:40;4.70;;;4.20;;
10260;SDS011;5175;42.606;23.388;2023-02-19T10:34:16;5.13;;;4.32;;
10260;SDS011;5175;42.606;23.388;2023-02-19T10:36:44;5.78;;;4.50;;
10260;SDS011;5175;42.606;23.388;2023-02-19T10:39:25;6.03;;;4.55;;
10260;SDS011;5175;42.606;23.388;2023-02-19T10:42:03;5.95;;;4.45;;
10260;SDS011;5175;42.606;23.388;2023-02-19T10:44:30;4.38;;;3.97;;
10260;SDS011;5175;42.606;23.388;2023-02-19T10:47:05;5.45;;;4.32;;
10260;SDS011;5175;42.606;23.388;2023-02-19T10:49:32;6.05;;;4.18;;
10260;SDS011;5175;42.606;23.388;2023-02-19T10:52:09;5.10;;;4.10;;
10260;SDS011;5175;42.606;23.388;2023-02-19T10:54:41;4.93;;;4.43;;
10260;SDS011;5175;42.606;23.388;2023-02-19T10:57:15;4.45;;;3.97;;
10260;SDS011;5175;42.606;23.388;2023-02-19T10:59:54;4.50;;;4.10;;
10260;SDS011;5175;42.606;23.388;2023-02-19T11:02:24;5.30;;;4.43;;
10260;SDS011;5175;42.606;23.388;2023-02-19T11:05:02;6.00;;;4.55;;
10260;SDS011;5175;42.606;23.388;2023-02-19T11:07:31;5.35;;;4.50;;
10260;SDS011;5175;42.606;23.388;2023-02-19T11:09:58;6.68;;;4.72;;
10260;SDS011;5175;42.606;23.388;2023-02-19T11:12:27;5.70;;;4.70;;
10260;SDS011;5175;42.606;23.388;2023-02-19T11:15:12;6.57;;;4.43;;
10260;SDS011;5175;42.606;23.388;2023-02-19T11:17:54;6.70;;;4.80;;
10260;SDS011;5175;42.606;23.388;2023-02-19T11:20:22;6.25;;;4.75;;
10260;SDS011;5175;42.606;23.388;2023-02-19T11:22:50;7.65;;;4.55;;
10260;SDS011;5175;42.606;23.388;2023-02-19T11:25:18;5.53;;;4.68;;
10260;SDS011;5175;42.606;23.388;2023-02-19T11:27:53;5.68;;;5.18;;
10260;SDS011;5175;42.606;23.388;2023-02-19T11:30:39;5.28;;;4.78;;
10260;SDS011;5175;42.606;23.388;2023-02-19T11:33:16;8.38;;;4.50;;
10260;SDS011;5175;42.606;23.388;2023-02-19T11:35:48;6.80;;;5.32;;
10260;SDS011;5175;42.606;23.388;2023-02-19T11:38:16;7.10;;;5.22;;
10260;SDS011;5175;42.606;23.388;2023-02-19T11:40:47;5.00;;;4.40;;
10260;SDS011;5175;42.606;23.388;2023-02-19T11:43:27;8.98;;;5.03;;
10260;SDS011;5175;42.606;23.388;2023-02-19T11:46:05;5.18;;;4.50;;
10260;SDS011;5175;42.606;23.388;2023-02-19T11:48:54;5.85;;;4.40;;
10260;SDS011;5175;42.606;23.388;2023-02-19T11:51:36;5.65;;;4.75;;
10260;SDS011;5175;42.606;23.388;2023-02-19T11:54:17;5.22;;;4.13;;
10260;SDS011;5175;42.606;23.388;2023-02-19T11:56:52;7.15;;;5.03;;
10260;SDS011;5175;42.606;23.388;2023-02-19T11:59:28;6.25;;;4.68;;
10260;SDS011;5175;42.606;23.388;2023-02-19T12:05:06;6.65;;;4.28;;
10260;SDS011;5175;42.606;23.388;2023-02-19T12:11:03;4.72;;;4.25;;
10260;SDS011;5175;42.606;23.388;2023-02-19T12:13:40;5.80;;;4.90;;
10260;SDS011;5175;42.606;23.388;2023-02-19T12:16:20;6.43;;;5.05;;
10260;SDS011;5175;42.606;23.388;2023-02-19T12:18:55;6.78;;;5.75;;
10260;SDS011;5175;42.606;23.388;2023-02-19T12:21:46;9.35;;;5.18;;
10260;SDS011;5175;42.606;23.388;2023-02-19T12:27:46;8.80;;;4.90;;
10260;SDS011;5175;42.606;23.388;2023-02-19T12:30:27;5.28;;;4.38;;
10260;SDS011;5175;42.606;23.388;2023-02-19T12:36:09;5.55;;;4.15;;
10260;SDS011;5175;42.606;23.388;2023-02-19T12:38:46;5.75;;;4.85;;
10260;SDS011;5175;42.606;23.388;2023-02-19T12:41:26;6.35;;;4.28;;
10260;SDS011;5175;42.606;23.388;2023-02-19T12:43:59;6.82;;;4.75;;
10260;SDS011;5175;42.606;23.388;2023-02-19T12:46:30;4.93;;;4.45;;
10260;SDS011;5175;42.606;23.388;2023-02-19T12:49:03;6.13;;;4.85;;
10260;SDS011;5175;42.606;23.388;2023-02-19T12:51:37;5.18;;;4.43;;
10260;SDS011;5175;42.606;23.388;2023-02-19T12:54:11;6.38;;;4.82;;
10260;SDS011;5175;42.606;23.388;2023-02-19T12:56:45;6.55;;;5.10;;
10260;SDS011;5175;42.606;23.388;2023-02-19T12:59:17;5.03;;;4.53;;
10260;SDS011;5175;42.606;23.388;2023-02-19T13:01:49;8.50;;;4.70;;
10260;SDS011;5175;42.606;23.388;2023-02-19T13:04:23;4.63;;;4.20;;
10260;SDS011;5175;42.606;23.388;2023-02-19T13:06:55;5.32;;;4.05;;
10260;SDS011;5175;42.606;23.388;2023-02-19T13:09:28;5.70;;;4.50;;
10260;SDS011;5175;42.606;23.388;2023-02-19T13:12:01;5.00;;;4.15;;
10260;SDS011;5175;42.606;23.388;2023-02-19T13:14:33;6.07;;;4.28;;
10260;SDS011;5175;42.606;23.388;2023-02-19T13:17:05;4.40;;;3.75;;
10260;SDS011;5175;42.606;23.388;2023-02-19T13:19:42;5.75;;;3.95;;
10260;SDS011;5175;42.606;23.388;2023-02-19T13:22:15;5.35;;;4.10;;
10260;SDS011;5175;42.606;23.388;2023-02-19T13:25:08;5.32;;;4.43;;
10260;SDS011;5175;42.606;23.388;2023-02-19T13:27:40;6.22;;;4.75;;
10260;SDS011;5175;42.606;23.388;2023-02-19T13:30:23;4.63;;;4.22;;
10260;SDS011;5175;42.606;23.388;2023-02-19T13:33:06;5.05;;;4.35;;
10260;SDS011;5175;42.606;23.388;2023-02-19T13:36:00;4.50;;;4.10;;
10260;SDS011;5175;42.606;23.388;2023-02-19T13:38:32;6.82;;;4.07;;
10260;SDS011;5175;42.606;23.388;2023-02-19T13:41:04;6.15;;;4.32;;
10260;SDS011;5175;42.606;23.388;2023-02-19T13:43:32;4.95;;;4.10;;
10260;SDS011;5175;42.606;23.388;2023-02-19T13:46:03;5.47;;;4.20;;
10260;SDS011;5175;42.606;23.388;2023-02-19T13:48:33;5.65;;;4.43;;
10260;SDS011;5175;42.606;23.388;2023-02-19T13:54:19;5.93;;;4.13;;
10260;SDS011;5175;42.606;23.388;2023-02-19T13:56:49;5.68;;;4.07;;
10260;SDS011;5175;42.606;23.388;2023-02-19T13:59:36;5.50;;;3.97;;
10260;SDS011;5175;42.606;23.388;2023-02-19T14:02:08;4.38;;;3.58;;
10260;SDS011;5175;42.606;23.388;2023-02-19T14:04:52;4.85;;;3.90;;
10260;SDS011;5175;42.606;23.388;2023-02-19T14:10:13;4.78;;;4.28;;
10260;SDS011;5175;42.606;23.388;2023-02-19T14:25:26;4.47;;;4.07;;
10260;SDS011;5175;42.606;23.388;2023-02-19T14:28:20;4.85;;;4.00;;
10260;SDS011;5175;42.606;23.388;2023-02-19T14:30:52;4.43;;;3.97;;
10260;SDS011;5175;42.606;23.388;2023-02-19T14:33:21;6.13;;;4.40;;
10260;SDS011;5175;42.606;23.388;2023-02-19T14:35:51;6.15;;;3.92;;
10260;SDS011;5175;42.606;23.388;2023-02-19T14:38:21;4.93;;;4.10;;
10260;SDS011;5175;42.606;23.388;2023-02-19T14:40:51;3.95;;;3.65;;
10260;SDS011;5175;42.606;23.388;2023-02-19T14:43:20;4.65;;;3.97;;
10260;SDS011;5175;42.606;23.388;2023-02-19T14:45:50;4.30;;;3.90;;
10260;SDS011;5175;42.606;23.388;2023-02-19T14:48:22;4.60;;;4.00;;
10260;SDS011;5175;42.606;23.388;2023-02-19T14:50:53;4.40;;;4.00;;
10260;SDS011;5175;42.606;23.388;2023-02-19T14:53:24;4.93;;;4.43;;
10260;SDS011;5175;42.606;23.388;2023-02-19T14:55:53;8.32;;;5.78;;
10260;SDS011;5175;42.606;23.388;2023-02-19T14:58:22;8.02;;;6.10;;
10260;SDS011;5175;42.606;23.388;2023-02-19T15:00:54;7.00;;;5.75;;
10260;SDS011;5175;42.606;23.388;2023-02-19T15:06:06;5.97;;;5.38;;
10260;SDS011;5175;42.606;23.388;2023-02-19T15:08:42;6.22;;;5.38;;
10260;SDS011;5175;42.606;23.388;2023-02-19T15:11:14;5.80;;;4.60;;
10260;SDS011;5175;42.606;23.388;2023-02-19T15:13:45;5.63;;;4.20;;
10260;SDS011;5175;42.606;23.388;2023-02-19T15:16:17;6.13;;;4.68;;
10260;SDS011;5175;42.606;23.388;2023-02-19T15:18:46;15.43;;;5.18;;
10260;SDS011;5175;42.606;23.388;2023-02-19T15:21:19;15.02;;;5.00;;
10260;SDS011;5175;42.606;23.388;2023-02-19T15:23:49;6.50;;;4.93;;
10260;SDS011;5175;42.606;23.388;2023-02-19T15:26:19;6.63;;;4.55;;
10260;SDS011;5175;42.606;23.388;2023-02-19T15:28:55;7.55;;;4.68;;
10260;SDS011;5175;42.606;23.388;2023-02-19T15:31:25;7.60;;;5.65;;
10260;SDS011;5175;42.606;23.388;2023-02-19T15:33:53;11.63;;;9.40;;
10260;SDS011;5175;42.606;23.388;2023-02-19T15:36:22;14.73;;;5.78;;
10260;SDS011;5175;42.606;23.388;2023-02-19T15:38:53;13.48;;;5.75;;
10260;SDS011;5175;42.606;23.388;2023-02-19T15:41:22;18.58;;;8.63;;